createdAt,value
2022-11-29T00:01:50.646Z,0.30
2022-11-29T00:04:53.598Z,0.33
2022-11-29T00:07:56.171Z,0.43
2022-11-29T00:11:04.993Z,0.44
2022-11-29T00:14:10.894Z,0.38
2022-11-29T00:17:13.847Z,0.35
2022-11-29T00:20:18.836Z,0.31
2022-11-29T00:23:21.740Z,0.40
2022-11-29T00:26:24.671Z,0.61
2022-11-29T00:29:28.161Z,0.41
2022-11-29T00:32:30.747Z,0.41
2022-11-29T00:35:33.731Z,0.50
2022-11-29T00:38:36.659Z,0.25
2022-11-29T00:41:40.184Z,0.45
2022-11-29T00:44:43.079Z,0.51
2022-11-29T00:47:46.085Z,0.46
2022-11-29T00:50:48.705Z,0.64
2022-11-29T00:53:51.611Z,0.44
2022-11-29T00:56:54.651Z,0.21
2022-11-29T00:59:57.555Z,0.49
2022-11-29T01:03:00.204Z,0.56
2022-11-29T01:06:09.079Z,0.58
2022-11-29T01:09:11.732Z,0.74
2022-11-29T01:12:14.672Z,0.74
2022-11-29T01:15:17.990Z,0.69
2022-11-29T01:18:20.950Z,0.67
2022-11-29T01:21:24.559Z,0.68
2022-11-29T01:24:28.834Z,0.72
2022-11-29T01:27:31.652Z,0.68
2022-11-29T01:30:34.775Z,0.62
2022-11-29T01:33:37.539Z,0.67
2022-11-29T01:36:40.498Z,0.35
2022-11-29T01:39:43.094Z,0.15
2022-11-29T01:42:46.044Z,0.23
2022-11-29T01:45:49.725Z,0.24
2022-11-29T01:48:57.119Z,-0.02
2022-11-29T01:52:14.486Z,-0.01
2022-11-29T01:55:18.350Z,0.05
2022-11-29T01:58:21.738Z,0.03
2022-11-29T02:01:25.272Z,0.15
2022-11-29T02:04:34.971Z,0.26
2022-11-29T02:07:38.241Z,0.35
2022-11-29T02:11:04.867Z,0.23
2022-11-29T02:14:49.625Z,0.37
2022-11-29T02:18:04.626Z,0.66
2022-11-29T02:21:07.556Z,0.45
2022-11-29T02:24:31.638Z,0.37
2022-11-29T02:28:12.781Z,0.33
2022-11-29T02:31:28.018Z,0.47
2022-11-29T02:34:33.991Z,0.40
2022-11-29T02:38:33.635Z,0.41
2022-11-29T02:41:55.185Z,0.60
2022-11-29T02:45:19.208Z,0.85
2022-11-29T02:49:01.139Z,0.57
2022-11-29T02:52:22.302Z,0.40
2022-11-29T02:55:35.956Z,0.61
2022-11-29T02:59:01.297Z,0.58
2022-11-29T03:02:45.530Z,0.87
2022-11-29T03:06:02.387Z,0.79
2022-11-29T03:09:22.042Z,0.82
2022-11-29T03:12:44.810Z,0.71
2022-11-29T03:16:10.564Z,0.78
2022-11-29T03:19:34.693Z,0.61
2022-11-29T03:23:09.527Z,0.63
2022-11-29T03:26:24.618Z,0.49
2022-11-29T03:29:35.123Z,0.74
2022-11-29T03:32:57.276Z,0.51
2022-11-29T03:36:10.562Z,0.76
2022-11-29T03:39:25.252Z,0.18
2022-11-29T03:42:48.554Z,0.69
2022-11-29T03:46:05.074Z,0.78
2022-11-29T03:49:41.075Z,0.78
2022-11-29T03:52:58.103Z,0.86
2022-11-29T03:56:03.570Z,0.26
2022-11-29T03:59:21.361Z,0.52
2022-11-29T04:02:41.175Z,0.36
2022-11-29T04:05:58.910Z,0.64
2022-11-29T04:09:27.090Z,0.82
2022-11-29T04:13:08.011Z,0.69
2022-11-29T04:16:19.559Z,0.88
2022-11-29T04:19:37.583Z,0.79
2022-11-29T04:23:12.475Z,1.19
2022-11-29T04:26:52.687Z,0.84
2022-11-29T04:30:08.138Z,1.16
2022-11-29T04:33:19.797Z,1.15
2022-11-29T04:36:25.006Z,1.25
2022-11-29T04:39:57.530Z,1.13
2022-11-29T04:43:33.530Z,0.89
2022-11-29T04:47:15.925Z,0.79
2022-11-29T04:50:24.786Z,0.76
2022-11-29T04:53:39.330Z,0.71
2022-11-29T04:56:50.214Z,0.58
2022-11-29T05:00:11.557Z,0.67
2022-11-29T05:03:27.784Z,0.61
2022-11-29T05:06:56.892Z,0.73
2022-11-29T05:10:20.813Z,0.68
2022-11-29T05:13:51.250Z,0.69
2022-11-29T05:17:19.983Z,0.90
2022-11-29T05:20:36.391Z,0.99
2022-11-29T05:24:03.251Z,0.82
2022-11-29T05:27:16.385Z,0.71
2022-11-29T05:30:22.651Z,1.07
2022-11-29T05:34:23.957Z,0.85
2022-11-29T05:38:10.954Z,0.88
2022-11-29T05:41:28.848Z,1.13
2022-11-29T05:44:44.463Z,0.74
2022-11-29T05:47:59.518Z,0.61
2022-11-29T05:51:40.850Z,0.69
2022-11-29T05:54:57.215Z,0.54
2022-11-29T05:58:30.054Z,0.89
2022-11-29T06:02:13.361Z,0.74
2022-11-29T06:05:24.117Z,0.88
2022-11-29T06:09:28.354Z,0.78
2022-11-29T06:12:35.971Z,0.83
2022-11-29T06:15:57.921Z,1.08
2022-11-29T06:19:09.595Z,1.08
2022-11-29T06:22:59.293Z,0.85
2022-11-29T06:26:29.389Z,0.95
2022-11-29T06:30:12.798Z,0.94
2022-11-29T06:33:24.348Z,0.80
2022-11-29T06:36:52.993Z,0.75
2022-11-29T06:39:56.410Z,0.62
2022-11-29T06:42:59.128Z,1.06
2022-11-29T06:46:12.730Z,1.10
2022-11-29T06:49:30.732Z,0.88
2022-11-29T06:52:36.639Z,0.99
2022-11-29T06:55:48.486Z,0.45
2022-11-29T06:59:16.967Z,0.43
2022-11-29T07:02:51.125Z,0.83
2022-11-29T07:05:54.615Z,1.10
2022-11-29T07:09:02.067Z,1.18
2022-11-29T07:12:05.389Z,0.97
2022-11-29T07:15:15.459Z,1.14
2022-11-29T07:18:18.302Z,1.75
2022-11-29T07:21:42.179Z,1.80
2022-11-29T07:25:00.532Z,1.70
2022-11-29T07:28:35.223Z,0.91
2022-11-29T07:31:47.278Z,1.07
2022-11-29T07:34:55.719Z,1.38
2022-11-29T07:38:23.976Z,1.10
2022-11-29T07:41:37.483Z,1.31
2022-11-29T07:44:46.723Z,1.27
2022-11-29T07:47:50.273Z,0.87
2022-11-29T07:50:55.230Z,1.52
2022-11-29T07:53:57.859Z,1.59
2022-11-29T07:57:00.783Z,1.47
2022-11-29T08:00:04.850Z,1.24
2022-11-29T08:03:14.063Z,0.96
2022-11-29T08:06:23.066Z,0.77
2022-11-29T08:09:25.745Z,1.34
2022-11-29T08:12:28.798Z,1.60
2022-11-29T08:15:31.463Z,1.93
2022-11-29T08:18:36.534Z,2.19
2022-11-29T08:21:39.597Z,1.58
2022-11-29T08:24:42.645Z,1.96
2022-11-29T08:27:45.453Z,1.98
2022-11-29T08:30:48.441Z,1.94
2022-11-29T08:33:51.073Z,1.78
2022-11-29T08:36:56.384Z,1.88
2022-11-29T08:39:59.066Z,2.07
2022-11-29T08:43:01.943Z,2.26
2022-11-29T08:46:04.955Z,2.24
2022-11-29T08:49:10.737Z,1.70
2022-11-29T08:52:32.064Z,1.78
2022-11-29T08:55:40.742Z,1.81
2022-11-29T08:58:43.341Z,2.63
2022-11-29T09:01:46.697Z,2.23
2022-11-29T09:04:49.406Z,2.25
2022-11-29T09:07:52.340Z,2.29
2022-11-29T09:10:55.046Z,2.49
2022-11-29T09:14:01.563Z,1.99
2022-11-29T09:17:04.172Z,2.48
2022-11-29T09:20:08.376Z,2.09
2022-11-29T09:23:12.063Z,2.09
2022-11-29T09:26:19.948Z,2.72
2022-11-29T09:29:22.945Z,2.45
2022-11-29T09:32:25.901Z,2.81
2022-11-29T09:35:30.448Z,3.13
2022-11-29T09:38:34.167Z,2.12
2022-11-29T09:41:55.757Z,2.42
2022-11-29T09:45:18.604Z,2.44
2022-11-29T09:48:32.314Z,2.36
2022-11-29T09:52:09.050Z,2.57
2022-11-29T09:55:23.812Z,2.62
2022-11-29T09:58:34.311Z,3.03
2022-11-29T10:01:58.572Z,3.06
2022-11-29T10:05:12.081Z,3.30
2022-11-29T10:08:17.407Z,3.26
2022-11-29T10:11:36.450Z,2.98
2022-11-29T10:14:48.286Z,2.64
2022-11-29T10:18:05.413Z,3.01
2022-11-29T10:21:14.443Z,3.04
2022-11-29T10:24:21.142Z,2.64
2022-11-29T10:27:25.089Z,2.69
2022-11-29T10:30:27.993Z,3.41
2022-11-29T10:33:35.334Z,3.71
2022-11-29T10:36:54.854Z,2.91
2022-11-29T10:40:04.517Z,2.96
2022-11-29T10:43:09.085Z,3.85
2022-11-29T10:46:30.279Z,2.76
2022-11-29T10:49:36.308Z,3.72
2022-11-29T10:52:39.407Z,3.52
2022-11-29T10:56:06.090Z,3.94
2022-11-29T10:59:21.031Z,3.44
2022-11-29T11:02:24.623Z,2.81
2022-11-29T11:05:27.502Z,3.29
2022-11-29T11:08:32.772Z,3.20
2022-11-29T11:11:35.771Z,3.31
2022-11-29T11:14:38.970Z,3.38
2022-11-29T11:17:59.680Z,3.74
2022-11-29T11:21:03.956Z,3.48
2022-11-29T11:24:23.586Z,3.43
2022-11-29T11:27:44.652Z,3.74
2022-11-29T11:30:58.144Z,3.29
2022-11-29T11:34:29.122Z,3.86
2022-11-29T11:37:33.424Z,3.50
2022-11-29T11:40:36.503Z,3.13
2022-11-29T11:43:40.074Z,3.26
2022-11-29T11:46:49.296Z,3.38
2022-11-29T11:50:04.383Z,3.52
2022-11-29T11:53:20.239Z,3.60
2022-11-29T11:56:24.312Z,3.65
2022-11-29T11:59:28.040Z,3.87
2022-11-29T12:02:40.079Z,3.97
2022-11-29T12:05:46.293Z,3.94
2022-11-29T12:08:51.190Z,3.79
2022-11-29T12:12:18.812Z,3.65
2022-11-29T12:15:28.766Z,3.89
2022-11-29T12:18:42.267Z,3.87
2022-11-29T12:21:52.646Z,3.58
2022-11-29T12:25:02.458Z,3.53
2022-11-29T12:28:11.839Z,3.54
2022-11-29T12:31:36.092Z,3.92
2022-11-29T12:35:00.099Z,3.97
2022-11-29T12:38:40.407Z,3.71
2022-11-29T12:42:00.854Z,3.84
2022-11-29T12:45:15.543Z,3.22
2022-11-29T12:48:37.146Z,3.79
2022-11-29T12:51:54.874Z,3.15
2022-11-29T12:55:17.776Z,3.59
2022-11-29T12:58:46.865Z,3.65
2022-11-29T13:02:18.392Z,3.07
2022-11-29T13:05:33.821Z,3.78
2022-11-29T13:09:04.205Z,3.59
2022-11-29T13:12:10.172Z,4.00
2022-11-29T13:15:35.496Z,3.75
2022-11-29T13:19:00.103Z,4.12
2022-11-29T13:22:21.352Z,3.67
2022-11-29T13:25:45.528Z,3.42
2022-11-29T13:28:49.071Z,3.16
2022-11-29T13:31:52.076Z,3.31
2022-11-29T13:34:59.115Z,2.92
2022-11-29T13:38:18.311Z,3.61
2022-11-29T13:41:45.857Z,3.00
2022-11-29T13:44:54.837Z,3.13
2022-11-29T13:48:02.094Z,2.90
2022-11-29T13:51:29.819Z,3.03
2022-11-29T13:54:34.418Z,2.98
2022-11-29T14:01:20.709Z,3.37
2022-11-29T14:04:49.888Z,3.26
2022-11-29T14:08:26.587Z,3.10
2022-11-29T14:11:42.987Z,2.83
2022-11-29T14:14:53.718Z,3.24
2022-11-29T14:18:02.917Z,3.11
2022-11-29T14:21:05.654Z,2.91
2022-11-29T14:24:35.261Z,3.07
2022-11-29T14:27:55.504Z,3.14
2022-11-29T14:31:02.018Z,3.16
2022-11-29T14:34:16.994Z,2.98
2022-11-29T14:37:30.030Z,3.02
2022-11-29T14:40:41.955Z,3.04
2022-11-29T14:43:45.118Z,3.26
2022-11-29T14:46:49.215Z,3.24
2022-11-29T14:49:55.767Z,2.40
2022-11-29T14:52:59.147Z,2.32
2022-11-29T14:56:45.121Z,2.55
2022-11-29T14:59:51.785Z,3.06
2022-11-29T15:03:00.741Z,2.72
2022-11-29T15:06:08.519Z,2.74
2022-11-29T15:09:20.731Z,2.23
2022-11-29T15:12:28.838Z,2.44
2022-11-29T15:15:49.798Z,2.62
2022-11-29T15:19:13.310Z,2.75
2022-11-29T15:22:40.715Z,2.66
2022-11-29T15:25:48.992Z,3.01
2022-11-29T15:28:52.032Z,2.81
2022-11-29T15:32:04.971Z,2.90
2022-11-29T15:35:18.359Z,2.52
2022-11-29T15:38:23.210Z,2.85
2022-11-29T15:41:35.609Z,3.02
2022-11-29T15:44:44.747Z,2.85
2022-11-29T15:47:47.891Z,2.83
2022-11-29T15:50:55.986Z,2.76
2022-11-29T15:54:13.102Z,2.93
2022-11-29T15:57:22.718Z,3.05
2022-11-29T16:00:28.213Z,2.58
2022-11-29T16:03:33.938Z,2.72
2022-11-29T16:06:42.506Z,2.71
2022-11-29T16:09:51.738Z,2.72
2022-11-29T16:13:01.214Z,2.90
2022-11-29T16:16:25.875Z,2.47
2022-11-29T16:19:28.463Z,2.40
2022-11-29T16:22:32.329Z,2.72
2022-11-29T16:25:54.112Z,2.71
2022-11-29T16:29:00.118Z,2.97
2022-11-29T16:32:36.946Z,3.30
2022-11-29T16:35:40.272Z,2.91
2022-11-29T16:39:23.170Z,2.79
2022-11-29T16:42:28.107Z,3.08
2022-11-29T16:45:33.344Z,2.58
2022-11-29T16:48:38.478Z,2.70
2022-11-29T16:51:50.078Z,2.87
2022-11-29T16:54:53.062Z,2.89
2022-11-29T16:57:55.848Z,3.05
2022-11-29T17:00:58.863Z,3.00
2022-11-29T17:04:01.912Z,3.44
2022-11-29T17:07:07.787Z,2.95
2022-11-29T17:10:15.391Z,2.70
2022-11-29T17:13:19.288Z,2.64
2022-11-29T17:16:23.988Z,2.31
2022-11-29T17:19:28.839Z,2.36
2022-11-29T17:22:31.670Z,1.94
2022-11-29T17:25:34.551Z,2.36
2022-11-29T17:28:37.272Z,2.45
2022-11-29T17:31:42.726Z,2.61
2022-11-29T17:34:45.842Z,2.78
2022-11-29T17:37:49.026Z,2.55
2022-11-29T17:40:51.764Z,2.77
2022-11-29T17:43:56.732Z,2.57
2022-11-29T17:46:59.467Z,2.76
2022-11-29T17:50:02.554Z,2.68
2022-11-29T17:53:06.629Z,2.75
2022-11-29T17:56:15.451Z,2.65
2022-11-29T17:59:18.887Z,2.91
2022-11-29T18:02:22.917Z,2.88
2022-11-29T18:05:34.157Z,2.30
2022-11-29T18:08:42.831Z,2.26
2022-11-29T18:11:49.038Z,2.25
2022-11-29T18:14:52.468Z,2.45
2022-11-29T18:17:55.592Z,2.28
2022-11-29T18:21:00.321Z,2.47
2022-11-29T18:24:08.123Z,2.49
2022-11-29T18:27:11.386Z,2.53
2022-11-29T18:30:15.097Z,2.56
2022-11-29T18:33:18.300Z,1.97
2022-11-29T18:36:32.957Z,2.32
2022-11-29T18:39:35.767Z,2.09
2022-11-29T18:42:38.978Z,1.97
2022-11-29T18:45:41.833Z,2.38
2022-11-29T18:48:46.927Z,2.53
2022-11-29T18:51:50.145Z,2.12
2022-11-29T18:54:54.063Z,2.18
2022-11-29T18:57:56.853Z,2.14
2022-11-29T19:01:12.361Z,2.10
2022-11-29T19:04:20.757Z,2.18
2022-11-29T19:07:24.010Z,2.19
2022-11-29T19:10:26.974Z,2.08
2022-11-29T19:13:29.898Z,2.42
2022-11-29T19:16:34.928Z,2.30
2022-11-29T19:19:38.363Z,2.43
2022-11-29T19:22:40.930Z,2.18
2022-11-29T19:25:44.678Z,2.51
2022-11-29T19:28:48.388Z,2.18
2022-11-29T19:31:51.643Z,2.23
2022-11-29T19:34:54.662Z,2.14
2022-11-29T19:37:57.900Z,2.49
2022-11-29T19:41:27.184Z,2.29
2022-11-29T19:44:35.873Z,1.97
2022-11-29T19:47:51.345Z,2.18
2022-11-29T19:50:54.504Z,2.54
2022-11-29T19:54:00.681Z,2.32
2022-11-29T19:57:03.667Z,2.52
2022-11-29T20:00:07.659Z,2.24
2022-11-29T20:03:14.830Z,2.31
2022-11-29T20:06:19.099Z,2.44
2022-11-29T20:09:24.293Z,2.32
2022-11-29T20:12:32.859Z,2.39
2022-11-29T20:15:35.728Z,2.17
2022-11-29T20:18:45.718Z,2.35
2022-11-29T20:21:52.295Z,2.78
2022-11-29T20:24:56.079Z,3.01
2022-11-29T20:28:04.200Z,2.83
2022-11-29T20:31:13.085Z,2.72
2022-11-29T20:34:16.035Z,2.54
2022-11-29T20:37:36.340Z,2.43
2022-11-29T20:41:02.306Z,2.37
2022-11-29T20:44:06.131Z,2.54
2022-11-29T20:47:21.045Z,2.30
2022-11-29T20:50:25.546Z,2.25
2022-11-29T20:53:42.083Z,2.35
2022-11-29T20:56:45.223Z,2.26
2022-11-29T20:59:48.073Z,2.29
2022-11-29T21:02:51.222Z,2.53
2022-11-29T21:05:56.031Z,2.25
2022-11-29T21:08:59.263Z,2.51
2022-11-29T21:12:01.989Z,2.47
2022-11-29T21:15:05.919Z,2.60
2022-11-29T21:18:26.540Z,2.84
2022-11-29T21:21:39.880Z,3.14
2022-11-29T21:24:57.875Z,2.41
2022-11-29T21:28:01.728Z,2.26
2022-11-29T21:31:04.876Z,2.81
2022-11-29T21:34:08.860Z,2.42
2022-11-29T21:37:11.594Z,2.51
2022-11-29T21:40:14.923Z,2.76
2022-11-29T21:43:17.619Z,2.87
2022-11-29T21:46:20.578Z,2.49
2022-11-29T21:49:23.188Z,2.66
2022-11-29T21:52:26.106Z,2.76
2022-11-29T21:55:32.122Z,2.82
2022-11-29T21:58:36.782Z,3.11
2022-11-29T22:01:40.156Z,3.01
2022-11-29T22:04:43.235Z,2.78
2022-11-29T22:07:45.854Z,2.87
2022-11-29T22:10:48.785Z,3.02
2022-11-29T22:14:12.279Z,3.01
2022-11-29T22:17:15.178Z,2.96
2022-11-29T22:20:17.775Z,3.12
2022-11-29T22:23:20.628Z,2.83
2022-11-29T22:26:23.254Z,2.91
2022-11-29T22:29:26.570Z,2.75
2022-11-29T22:32:29.108Z,2.77
2022-11-29T22:35:32.039Z,2.46
2022-11-29T22:38:35.003Z,2.47
2022-11-29T22:41:39.208Z,2.65
2022-11-29T22:44:41.779Z,2.94
2022-11-29T22:47:44.589Z,3.03
2022-11-29T22:50:47.388Z,3.15
2022-11-29T22:53:55.374Z,2.92
2022-11-29T22:56:57.986Z,2.98
2022-11-29T23:00:00.856Z,2.98
2022-11-29T23:03:04.343Z,3.02
2022-11-29T23:06:13.159Z,3.04
2022-11-29T23:09:21.315Z,3.29
2022-11-29T23:12:24.718Z,3.22
2022-11-29T23:15:27.326Z,3.01
2022-11-29T23:18:30.870Z,2.95
2022-11-29T23:21:36.318Z,3.18
2022-11-29T23:24:40.895Z,3.21
2022-11-29T23:27:43.515Z,3.27
2022-11-29T23:30:46.471Z,2.92
2022-11-29T23:33:49.694Z,3.13
2022-11-29T23:36:53.294Z,3.22
2022-11-29T23:39:56.199Z,3.46
2022-11-29T23:42:59.285Z,3.18
2022-11-29T23:46:15.215Z,3.33
2022-11-29T23:49:18.266Z,3.48
2022-11-29T23:52:20.842Z,3.07
2022-11-29T23:55:24.743Z,3.34
2022-11-29T23:58:28.981Z,3.30
